Terminal Aerodrome Forecast
Issued by NWS

Home | Current Version | Previous Version | Text Only | Print | Product List | Glossary On
Versions: 1 2 3 4 5 6 7 8 9 10 11 12 13 14 15 16 17 18 19 20 21 22 23 24 25 26
000
FTUS45 KPSR 262320
TAFSDL
TAF
KSDL 262320Z 2700/2724 23007KT P6SM FEW150 BKN250
     FM270300 VRB03KT P6SM FEW130 BKN200
     FM271500 12008KT P6SM FEW100 SCT140 BKN200
     FM272000 22007KT P6SM FEW100 FEW140 SCT200=

USA.gov is the U.S. government's official web portal to all federal, state and local government web resources and services.